createdAt,value
2022-12-05T00:02:14.861Z,13.90
2022-12-05T00:04:44.092Z,13.43
2022-12-05T00:07:12.171Z,14.40
2022-12-05T00:09:40.810Z,14.20
2022-12-05T00:12:08.853Z,13.83
2022-12-05T00:14:36.910Z,14.67
2022-12-05T00:17:06.408Z,14.40
2022-12-05T00:19:37.683Z,15.17
2022-12-05T00:22:06.191Z,14.23
2022-12-05T00:24:34.207Z,15.23
2022-12-05T00:27:02.272Z,14.73
2022-12-05T00:29:30.317Z,14.60
2022-12-05T00:31:58.786Z,15.23
2022-12-05T00:34:28.628Z,15.43
2022-12-05T00:36:56.624Z,15.47
2022-12-05T00:39:24.624Z,15.83
2022-12-05T00:41:52.587Z,15.20
2022-12-05T00:44:20.607Z,15.27
2022-12-05T00:46:49.058Z,14.83
2022-12-05T00:49:17.056Z,14.77
2022-12-05T00:51:46.484Z,15.13
2022-12-05T00:54:16.272Z,15.27
2022-12-05T00:56:44.613Z,15.73
2022-12-05T00:59:17.792Z,15.83
2022-12-05T01:01:47.700Z,16.07
2022-12-05T01:04:18.530Z,15.30
2022-12-05T01:06:48.327Z,14.63
2022-12-05T01:09:18.902Z,14.30
2022-12-05T01:11:47.162Z,14.77
2022-12-05T01:14:17.022Z,14.43
2022-12-05T01:16:47.276Z,14.60
2022-12-05T01:19:19.908Z,15.73
2022-12-05T01:21:49.684Z,15.33
2022-12-05T01:24:19.547Z,14.93
2022-12-05T01:26:48.603Z,14.67
2022-12-05T01:29:19.126Z,15.43
2022-12-05T01:31:47.518Z,15.03
2022-12-05T01:34:17.968Z,14.40
2022-12-05T01:36:46.665Z,15.67
2022-12-05T01:39:16.355Z,14.97
2022-12-05T01:41:46.605Z,16.10
2022-12-05T01:44:52.450Z,15.83
2022-12-05T01:47:20.938Z,15.93
2022-12-05T01:49:48.929Z,15.57
2022-12-05T01:52:20.107Z,15.80
2022-12-05T01:54:51.884Z,16.40
2022-12-05T01:57:21.535Z,15.63
2022-12-05T01:59:53.916Z,15.70
2022-12-05T02:02:23.976Z,15.23
2022-12-05T02:04:59.468Z,16.13
2022-12-05T02:07:28.686Z,16.60
2022-12-05T02:09:58.167Z,15.97
2022-12-05T02:12:26.655Z,15.87
2022-12-05T02:15:16.959Z,16.23
2022-12-05T02:17:53.289Z,16.47
2022-12-05T02:20:33.657Z,17.00
2022-12-05T02:23:17.692Z,15.83
2022-12-05T02:26:01.658Z,16.03
2022-12-05T02:28:57.251Z,15.67
2022-12-05T02:31:32.059Z,15.87
2022-12-05T02:34:08.300Z,15.57
2022-12-05T02:36:41.767Z,16.93
2022-12-05T02:39:16.865Z,16.00
2022-12-05T02:41:51.859Z,15.23
2022-12-05T02:44:26.795Z,14.53
2022-12-05T02:46:58.386Z,14.60
2022-12-05T02:49:31.678Z,14.73
2022-12-05T02:52:02.439Z,14.83
2022-12-05T02:54:34.248Z,13.80
2022-12-05T02:57:02.830Z,15.73
2022-12-05T02:59:30.931Z,15.77
2022-12-05T03:02:00.798Z,15.80
2022-12-05T03:04:30.952Z,15.77
2022-12-05T03:07:01.642Z,17.07
2022-12-05T03:09:35.550Z,16.93
2022-12-05T03:12:11.770Z,16.63
2022-12-05T03:14:44.951Z,16.10
2022-12-05T03:17:20.193Z,17.40
2022-12-05T03:19:55.191Z,16.27
2022-12-05T03:22:31.562Z,15.90
2022-12-05T03:25:00.492Z,16.63
2022-12-05T03:27:32.056Z,17.53
2022-12-05T03:30:05.471Z,16.77
2022-12-05T03:32:40.810Z,17.20
2022-12-05T03:35:16.135Z,18.73
2022-12-05T03:37:52.952Z,18.60
2022-12-05T03:40:28.828Z,17.43
2022-12-05T03:43:03.051Z,17.97
2022-12-05T03:45:38.445Z,18.17
2022-12-05T03:48:15.253Z,18.23
2022-12-05T03:50:47.466Z,17.43
2022-12-05T03:53:21.173Z,17.70
2022-12-05T03:55:59.240Z,17.77
2022-12-05T03:58:31.546Z,17.53
2022-12-05T04:01:02.234Z,17.83
2022-12-05T04:03:40.642Z,17.13
2022-12-05T04:06:15.248Z,17.60
2022-12-05T04:08:48.408Z,18.37
2022-12-05T04:11:20.558Z,18.83
2022-12-05T04:13:56.124Z,18.60
2022-12-05T04:16:44.135Z,19.37
2022-12-05T04:19:20.920Z,18.57
2022-12-05T04:21:51.717Z,20.17
2022-12-05T04:24:41.380Z,19.23
2022-12-05T04:27:24.238Z,19.67
2022-12-05T04:30:01.201Z,18.83
2022-12-05T04:32:34.823Z,19.27
2022-12-05T04:35:10.796Z,18.20
2022-12-05T04:37:43.847Z,19.30
2022-12-05T04:40:16.575Z,18.40
2022-12-05T04:42:46.489Z,19.37
2022-12-05T04:45:19.003Z,19.97
2022-12-05T04:47:52.613Z,20.53
2022-12-05T04:50:25.268Z,21.63
2022-12-05T04:52:56.438Z,22.83
2022-12-05T04:55:28.393Z,21.37
2022-12-05T04:58:07.247Z,22.93
2022-12-05T05:00:40.457Z,22.07
2022-12-05T05:03:14.275Z,22.00
2022-12-05T05:05:48.259Z,22.57
2022-12-05T05:08:20.049Z,22.90
2022-12-05T05:10:57.642Z,22.53
2022-12-05T05:13:26.054Z,21.30
2022-12-05T05:15:55.140Z,20.80
2022-12-05T05:18:23.221Z,19.70
2022-12-05T05:20:52.574Z,19.60
2022-12-05T05:23:20.577Z,18.67
2022-12-05T05:25:53.977Z,17.43
2022-12-05T05:28:22.726Z,17.67
2022-12-05T05:30:50.771Z,16.90
2022-12-05T05:33:18.822Z,16.93
2022-12-05T05:35:46.828Z,16.37
2022-12-05T05:38:16.209Z,17.33
2022-12-05T05:40:44.639Z,16.37
2022-12-05T05:43:12.600Z,16.73
2022-12-05T05:45:40.626Z,16.87
2022-12-05T05:48:08.612Z,16.63
2022-12-05T05:50:36.653Z,17.63
2022-12-05T05:53:05.302Z,18.40
2022-12-05T05:55:34.637Z,17.83
2022-12-05T05:58:02.643Z,17.40
2022-12-05T06:00:30.602Z,17.53
2022-12-05T06:03:00.818Z,16.80
2022-12-05T06:05:29.090Z,16.07
2022-12-05T06:07:59.897Z,16.50
2022-12-05T06:10:29.740Z,17.07
2022-12-05T06:13:00.795Z,15.90
2022-12-05T06:15:28.784Z,17.23
2022-12-05T06:17:58.409Z,16.77
2022-12-05T06:20:26.368Z,16.77
2022-12-05T06:22:54.590Z,17.63
2022-12-05T06:25:22.550Z,17.37
2022-12-05T06:27:50.664Z,17.10
2022-12-05T06:30:23.666Z,16.87
2022-12-05T06:32:51.691Z,16.93
2022-12-05T06:35:19.714Z,16.50
2022-12-05T06:37:47.692Z,16.90
2022-12-05T06:40:15.960Z,17.77
2022-12-05T06:42:44.195Z,17.80
2022-12-05T06:45:14.335Z,17.20
2022-12-05T06:47:43.779Z,18.10
2022-12-05T06:50:12.221Z,17.90
2022-12-05T06:52:40.344Z,17.33
2022-12-05T06:55:09.374Z,17.50
2022-12-05T06:57:37.372Z,18.87
2022-12-05T07:00:24.766Z,18.57
2022-12-05T07:02:54.892Z,18.03
2022-12-05T07:05:23.469Z,18.93
2022-12-05T07:07:51.599Z,19.23
2022-12-05T07:10:19.868Z,18.30
2022-12-05T07:12:49.496Z,22.97
2022-12-05T07:15:17.511Z,21.10
2022-12-05T07:17:45.886Z,19.57
2022-12-05T07:20:17.772Z,19.57
2022-12-05T07:22:46.156Z,19.83
2022-12-05T07:25:14.144Z,18.90
2022-12-05T07:27:42.101Z,18.33
2022-12-05T07:30:11.221Z,19.63
2022-12-05T07:32:39.213Z,19.30
2022-12-05T07:35:08.116Z,18.50
2022-12-05T07:37:37.585Z,19.27
2022-12-05T07:40:06.664Z,19.50
2022-12-05T07:42:37.941Z,20.00
2022-12-05T07:45:06.782Z,20.43
2022-12-05T07:47:34.903Z,21.20
2022-12-05T07:50:03.154Z,21.80
2022-12-05T07:52:33.826Z,21.27
2022-12-05T07:55:03.359Z,21.83
2022-12-05T07:57:31.815Z,21.80
2022-12-05T08:00:00.176Z,25.97
2022-12-05T08:02:28.520Z,38.07
2022-12-05T08:04:56.574Z,30.53
2022-12-05T08:07:24.794Z,31.60
2022-12-05T08:09:52.740Z,27.40
2022-12-05T08:12:22.100Z,25.57
2022-12-05T08:14:50.123Z,22.90
2022-12-05T08:17:18.794Z,22.57
2022-12-05T08:19:47.168Z,21.73
2022-12-05T08:22:15.167Z,21.00
2022-12-05T08:24:44.706Z,22.30
2022-12-05T08:27:12.694Z,21.17
2022-12-05T08:29:42.057Z,21.40
2022-12-05T08:32:11.818Z,21.93
2022-12-05T08:34:42.865Z,20.90
2022-12-05T08:37:10.973Z,21.90
2022-12-05T08:39:39.107Z,48.60
2022-12-05T08:42:07.355Z,24.70
2022-12-05T08:44:37.683Z,18.10
2022-12-05T08:47:07.104Z,18.73
2022-12-05T08:49:35.233Z,18.73
2022-12-05T08:52:03.203Z,18.07
2022-12-05T08:54:31.351Z,19.27
2022-12-05T08:57:30.471Z,17.53
2022-12-05T08:59:58.727Z,16.43
2022-12-05T09:02:28.203Z,16.67
2022-12-05T09:05:01.639Z,16.60
2022-12-05T09:07:37.481Z,18.10
2022-12-05T09:10:06.384Z,17.93
2022-12-05T09:12:36.411Z,17.50
2022-12-05T09:15:04.737Z,18.13
2022-12-05T09:17:34.238Z,17.23
2022-12-05T09:20:03.487Z,16.77
2022-12-05T09:22:31.501Z,17.03
2022-12-05T09:25:00.721Z,17.20
2022-12-05T09:27:29.826Z,17.90
2022-12-05T09:29:58.291Z,16.47
2022-12-05T09:32:27.380Z,16.67
2022-12-05T09:34:57.074Z,16.80
2022-12-05T09:37:40.662Z,16.17
2022-12-05T09:40:16.382Z,16.20
2022-12-05T09:42:57.720Z,15.57
2022-12-05T09:45:30.028Z,17.27
2022-12-05T09:48:01.739Z,17.03
2022-12-05T09:50:32.991Z,15.97
2022-12-05T09:53:08.411Z,15.83
2022-12-05T09:55:47.482Z,16.33
2022-12-05T09:58:38.166Z,15.33
2022-12-05T10:01:24.390Z,16.13
2022-12-05T10:04:06.778Z,17.20
2022-12-05T10:06:41.368Z,16.63
2022-12-05T10:09:24.909Z,17.90
2022-12-05T10:11:59.610Z,16.10
2022-12-05T10:14:35.071Z,17.50
2022-12-05T10:17:10.345Z,16.37
2022-12-05T10:19:43.852Z,17.77
2022-12-05T10:22:20.402Z,17.50
2022-12-05T10:24:52.636Z,17.53
2022-12-05T10:27:33.004Z,17.47
2022-12-05T10:30:07.859Z,17.47
2022-12-05T10:32:41.572Z,17.67
2022-12-05T10:35:18.099Z,17.20
2022-12-05T10:37:50.211Z,17.07
2022-12-05T10:40:19.050Z,17.67
2022-12-05T10:42:48.299Z,17.37
2022-12-05T10:45:23.442Z,17.57
2022-12-05T10:47:56.747Z,18.03
2022-12-05T10:50:29.026Z,17.27
2022-12-05T10:53:02.960Z,17.57
2022-12-05T10:55:35.472Z,16.43
2022-12-05T10:58:17.539Z,16.53
2022-12-05T11:00:49.240Z,16.57
2022-12-05T11:03:30.448Z,17.30
2022-12-05T11:06:02.106Z,16.50
2022-12-05T11:09:02.945Z,17.53
2022-12-05T11:11:24.478Z,16.50
2022-12-05T11:13:55.045Z,24.57
2022-12-05T11:16:26.224Z,15.93
2022-12-05T11:18:54.384Z,16.67
2022-12-05T11:21:22.450Z,15.70
2022-12-05T11:23:51.816Z,15.77
2022-12-05T11:26:35.926Z,16.37
2022-12-05T11:29:04.475Z,16.47
2022-12-05T11:31:33.267Z,15.73
2022-12-05T11:34:18.626Z,16.03
2022-12-05T11:36:54.388Z,16.10
2022-12-05T11:39:24.581Z,15.10
2022-12-05T11:42:17.817Z,15.90
2022-12-05T11:45:20.272Z,15.77
2022-12-05T11:48:05.130Z,15.73
2022-12-05T11:50:51.430Z,16.67
2022-12-05T11:53:42.980Z,15.63
2022-12-05T11:56:24.979Z,15.93
2022-12-05T11:59:12.762Z,15.67
2022-12-05T12:01:54.856Z,16.70
2022-12-05T12:04:49.625Z,16.20
2022-12-05T12:07:30.852Z,16.63
2022-12-05T12:10:14.175Z,17.77
2022-12-05T12:12:52.686Z,15.73
2022-12-05T12:15:43.267Z,18.33
2022-12-05T12:18:32.244Z,16.93
2022-12-05T12:21:14.889Z,16.00
2022-12-05T12:23:58.098Z,16.13
2022-12-05T12:26:33.449Z,16.50
2022-12-05T12:29:14.204Z,17.00
2022-12-05T12:31:59.124Z,16.43
2022-12-05T12:34:45.425Z,16.67
2022-12-05T12:37:26.692Z,17.23
2022-12-05T12:40:04.946Z,16.83
2022-12-05T12:42:40.846Z,15.70
2022-12-05T12:45:36.910Z,16.33
2022-12-05T12:48:18.503Z,16.47
2022-12-05T12:50:48.229Z,15.30
2022-12-05T12:54:00.938Z,16.10
2022-12-05T12:56:38.860Z,17.33
2022-12-05T12:59:27.812Z,15.30
2022-12-05T13:02:02.672Z,15.87
2022-12-05T13:04:40.615Z,15.53
2022-12-05T13:07:15.050Z,15.93
2022-12-05T13:09:51.821Z,15.60
2022-12-05T13:12:25.736Z,17.07
2022-12-05T13:15:01.881Z,17.17
2022-12-05T13:17:33.386Z,15.87
2022-12-05T13:20:01.900Z,15.17
2022-12-05T13:22:31.233Z,15.27
2022-12-05T13:25:00.376Z,15.73
2022-12-05T13:27:30.665Z,15.67
2022-12-05T13:30:01.324Z,15.60
2022-12-05T13:32:34.408Z,17.70
2022-12-05T13:35:10.399Z,18.23
2022-12-05T13:38:05.957Z,16.17
2022-12-05T13:40:54.315Z,15.63
2022-12-05T13:43:26.739Z,15.47
2022-12-05T13:46:05.373Z,15.07
2022-12-05T13:48:38.064Z,16.40
2022-12-05T13:51:09.141Z,16.40
2022-12-05T13:53:40.718Z,15.53
2022-12-05T13:56:27.404Z,15.70
2022-12-05T13:58:56.803Z,17.13
2022-12-05T14:01:51.993Z,16.37
2022-12-05T14:04:51.487Z,16.13
2022-12-05T14:07:40.940Z,15.20
2022-12-05T14:10:11.400Z,14.70
2022-12-05T14:12:51.278Z,15.63
2022-12-05T14:15:36.288Z,15.23
2022-12-05T14:18:11.682Z,15.03
2022-12-05T14:20:57.044Z,15.77
2022-12-05T14:23:52.733Z,14.57
2022-12-05T14:26:36.320Z,14.40
2022-12-05T14:29:18.259Z,14.93
2022-12-05T14:32:04.810Z,14.23
2022-12-05T14:34:36.131Z,14.20
2022-12-05T14:37:09.128Z,13.60
2022-12-05T14:39:40.879Z,13.30
2022-12-05T14:42:24.299Z,14.93
2022-12-05T14:44:55.748Z,12.67
2022-12-05T14:47:28.439Z,12.77
2022-12-05T14:50:02.751Z,13.47
2022-12-05T14:52:34.635Z,13.27
2022-12-05T14:55:13.042Z,12.87
2022-12-05T14:57:48.616Z,12.70
2022-12-05T15:00:22.212Z,14.03
2022-12-05T15:02:55.877Z,13.20
2022-12-05T15:05:27.548Z,14.13
2022-12-05T15:07:59.306Z,13.17
2022-12-05T15:10:30.763Z,13.37
2022-12-05T15:13:02.528Z,12.60
2022-12-05T15:15:37.352Z,12.80
2022-12-05T15:18:15.590Z,13.50
2022-12-05T15:20:48.949Z,12.70
2022-12-05T15:23:41.215Z,10.67
2022-12-05T15:26:45.492Z,10.17
2022-12-05T15:29:11.130Z,10.40
2022-12-05T15:31:45.556Z,9.37
2022-12-05T15:34:19.404Z,11.03
2022-12-05T15:36:52.007Z,10.07
2022-12-05T15:39:25.829Z,11.00
2022-12-05T15:41:54.408Z,10.33
2022-12-05T15:44:30.588Z,10.23
2022-12-05T15:47:00.911Z,10.37
2022-12-05T15:49:29.899Z,9.70
2022-12-05T15:52:02.037Z,9.23
2022-12-05T15:54:36.636Z,11.27
2022-12-05T15:57:09.147Z,10.90
2022-12-05T15:59:43.510Z,9.70
2022-12-05T16:02:17.027Z,9.63
2022-12-05T16:04:51.000Z,9.17
2022-12-05T16:07:19.889Z,10.13
2022-12-05T16:09:51.997Z,10.67
2022-12-05T16:12:32.202Z,10.93
2022-12-05T16:15:09.456Z,11.73
2022-12-05T16:17:43.544Z,11.47
2022-12-05T16:20:25.899Z,11.20
2022-12-05T16:22:56.078Z,10.70
2022-12-05T16:25:28.194Z,11.07
2022-12-05T16:28:01.221Z,11.30
2022-12-05T16:30:30.509Z,11.03
2022-12-05T16:33:06.879Z,11.23
2022-12-05T16:35:38.409Z,10.83
2022-12-05T16:38:10.899Z,10.97
2022-12-05T16:40:41.237Z,10.90
2022-12-05T16:43:19.906Z,13.20
2022-12-05T16:45:49.722Z,12.13
2022-12-05T16:48:22.193Z,10.10
2022-12-05T16:50:52.403Z,10.30
2022-12-05T16:53:30.115Z,9.63
2022-12-05T16:56:04.522Z,10.20
2022-12-05T16:58:33.463Z,9.57
2022-12-05T17:01:08.657Z,9.70
2022-12-05T17:03:37.390Z,10.00
2022-12-05T17:06:06.208Z,10.00
2022-12-05T17:08:34.320Z,10.23
2022-12-05T17:11:04.255Z,11.03
2022-12-05T17:13:33.263Z,10.57
2022-12-05T17:16:01.424Z,10.00
2022-12-05T17:18:32.128Z,11.70
2022-12-05T17:21:02.506Z,14.33
2022-12-05T17:23:30.572Z,12.90
2022-12-05T17:25:59.884Z,13.13
2022-12-05T17:28:29.459Z,14.37
2022-12-05T17:30:57.882Z,16.43
2022-12-05T17:33:26.160Z,18.53
2022-12-05T17:35:54.189Z,17.63
2022-12-05T17:38:22.348Z,20.60
2022-12-05T17:40:50.532Z,12.50
2022-12-05T17:43:25.425Z,11.77
2022-12-05T17:45:55.713Z,16.27
2022-12-05T17:48:23.922Z,32.00
2022-12-05T17:50:52.126Z,13.23
2022-12-05T17:53:22.170Z,27.60
2022-12-05T17:55:50.284Z,46.63
2022-12-05T17:58:19.135Z,17.37
2022-12-05T18:00:48.431Z,23.53
2022-12-05T18:03:21.431Z,12.03
2022-12-05T18:05:50.069Z,22.60
2022-12-05T18:08:18.464Z,26.90
2022-12-05T18:10:48.436Z,16.30
2022-12-05T18:13:17.864Z,13.53
2022-12-05T18:15:48.583Z,45.47
2022-12-05T18:18:19.481Z,11.47
2022-12-05T18:20:47.660Z,12.37
2022-12-05T18:23:15.843Z,10.97
2022-12-05T18:25:44.109Z,41.23
2022-12-05T18:28:17.761Z,12.53
2022-12-05T18:30:51.622Z,18.67
2022-12-05T18:33:21.144Z,13.17
2022-12-05T18:35:49.390Z,16.27
2022-12-05T18:38:17.430Z,29.40
2022-12-05T18:40:45.406Z,14.27
2022-12-05T18:43:14.124Z,9.30
2022-12-05T18:45:42.433Z,10.00
2022-12-05T18:48:37.726Z,8.80
2022-12-05T18:51:09.861Z,8.50
2022-12-05T18:53:38.463Z,9.57
2022-12-05T18:56:24.681Z,8.77
2022-12-05T18:58:58.336Z,8.97
2022-12-05T19:01:27.828Z,9.10
2022-12-05T19:03:58.165Z,8.17
2022-12-05T19:06:29.799Z,7.00
2022-12-05T19:08:59.720Z,7.03
2022-12-05T19:11:29.070Z,6.40
2022-12-05T19:13:57.671Z,7.50
2022-12-05T19:16:26.736Z,7.10
2022-12-05T19:18:56.192Z,7.50
2022-12-05T19:21:24.916Z,7.30
2022-12-05T19:23:54.538Z,8.00
2022-12-05T19:26:23.279Z,8.17
2022-12-05T19:28:52.439Z,9.27
2022-12-05T19:31:22.317Z,9.13
2022-12-05T19:33:52.739Z,8.47
2022-12-05T19:36:22.826Z,7.23
2022-12-05T19:38:52.974Z,7.10
2022-12-05T19:41:24.510Z,5.80
2022-12-05T19:43:52.863Z,5.73
2022-12-05T19:46:24.816Z,6.13
2022-12-05T19:48:54.308Z,6.03
2022-12-05T19:51:22.395Z,5.70
2022-12-05T19:53:52.874Z,6.10
2022-12-05T19:56:23.561Z,6.90
2022-12-05T19:58:52.732Z,14.30
2022-12-05T20:01:23.408Z,25.20
2022-12-05T20:03:54.071Z,15.47
2022-12-05T20:06:22.922Z,17.37
2022-12-05T20:08:52.553Z,28.60
2022-12-05T20:11:24.893Z,15.27
2022-12-05T20:13:54.683Z,10.47
2022-12-05T20:16:25.866Z,11.47
2022-12-05T20:18:55.959Z,9.43
2022-12-05T20:21:24.980Z,8.90
2022-12-05T20:23:54.540Z,8.93
2022-12-05T20:26:25.962Z,8.67
2022-12-05T20:28:56.313Z,7.97
2022-12-05T20:31:26.261Z,18.30
2022-12-05T20:33:56.125Z,17.23
2022-12-05T20:36:26.141Z,18.80
2022-12-05T20:38:57.399Z,11.80
2022-12-05T20:41:27.759Z,12.00
2022-12-05T20:43:57.699Z,23.10
2022-12-05T20:46:28.952Z,19.50
2022-12-05T20:48:57.392Z,23.63
2022-12-05T20:51:27.864Z,21.57
2022-12-05T20:53:56.831Z,10.03
2022-12-05T20:56:30.660Z,20.33
2022-12-05T20:59:00.840Z,36.60
2022-12-05T21:01:31.622Z,24.00
2022-12-05T21:04:00.557Z,52.67
2022-12-05T21:06:30.559Z,26.40
2022-12-05T21:08:59.710Z,16.83
2022-12-05T21:11:30.563Z,12.20
2022-12-05T21:14:01.004Z,9.30
2022-12-05T21:16:29.435Z,13.43
2022-12-05T21:19:00.208Z,9.93
2022-12-05T21:21:29.949Z,14.60
2022-12-05T21:24:00.341Z,16.47
2022-12-05T21:26:33.596Z,33.53
2022-12-05T21:29:02.799Z,25.70
2022-12-05T21:31:32.675Z,29.87
2022-12-05T21:34:02.445Z,15.20
2022-12-05T21:36:32.308Z,14.20
2022-12-05T21:39:00.426Z,13.70
2022-12-05T21:41:30.430Z,11.77
2022-12-05T21:43:58.500Z,8.40
2022-12-05T21:46:26.844Z,8.07
2022-12-05T21:48:55.802Z,6.50
2022-12-05T21:51:24.337Z,7.97
2022-12-05T21:53:53.007Z,7.30
2022-12-05T21:56:23.014Z,7.23
2022-12-05T21:58:53.701Z,7.10
2022-12-05T22:01:23.405Z,6.93
2022-12-05T22:03:54.091Z,6.77
2022-12-05T22:06:22.444Z,6.90
2022-12-05T22:08:50.528Z,7.60
2022-12-05T22:11:20.368Z,7.53
2022-12-05T22:13:49.891Z,7.23
2022-12-05T22:16:26.475Z,7.10
2022-12-05T22:18:58.907Z,6.27
2022-12-05T22:21:26.979Z,5.70
2022-12-05T22:23:55.291Z,6.07
2022-12-05T22:26:25.445Z,5.23
2022-12-05T22:28:54.581Z,5.77
2022-12-05T22:31:25.580Z,5.53
2022-12-05T22:33:53.838Z,5.73
2022-12-05T22:36:23.073Z,6.10
2022-12-05T22:38:51.967Z,5.37
2022-12-05T22:41:22.301Z,5.50
2022-12-05T22:43:54.411Z,6.07
2022-12-05T22:46:24.103Z,7.47
2022-12-05T22:48:53.933Z,5.33
2022-12-05T22:51:23.436Z,5.53
2022-12-05T22:53:52.208Z,5.47
2022-12-05T22:56:22.215Z,5.10
2022-12-05T22:58:50.565Z,5.17
2022-12-05T23:01:21.161Z,5.00
2022-12-05T23:03:55.184Z,5.17
2022-12-05T23:06:23.241Z,5.10
2022-12-05T23:08:51.665Z,5.13
2022-12-05T23:11:20.499Z,5.47
2022-12-05T23:13:50.074Z,5.87
2022-12-05T23:16:21.454Z,5.33
2022-12-05T23:18:53.645Z,5.23
2022-12-05T23:21:25.179Z,5.47
2022-12-05T23:23:55.036Z,5.50
2022-12-05T23:26:24.711Z,5.27
2022-12-05T23:28:53.171Z,5.70
2022-12-05T23:31:21.752Z,5.80
2022-12-05T23:33:51.855Z,5.90
2022-12-05T23:36:21.131Z,6.20
2022-12-05T23:38:49.377Z,6.10
2022-12-05T23:41:19.998Z,6.37
2022-12-05T23:43:51.100Z,6.27
2022-12-05T23:46:20.862Z,6.00
2022-12-05T23:48:51.431Z,6.70
2022-12-05T23:51:21.551Z,6.77
2022-12-05T23:53:54.079Z,6.10
2022-12-05T23:56:24.045Z,6.67
2022-12-05T23:58:55.942Z,6.53
